Time;durP1;ratioP1;P1;durP2;ratioP2;P2;SDS_P1;SDS_P2;PMS_P1;PMS_P2;Temp;Humidity;BMP_temperature;BMP_pressure;BME280_temperature;BME280_humidity;BME280_pressure;Samples;Min_cycle;Max_cycle;Signal;HPM_P1;HPM_P2
2022/02/27 00:02:58;;;;;;;;;;;;;;;;;;;;;
2022/02/27 00:20:46;;;;;;;;;;;;;;;;;;;;;
2022/02/27 00:24:07;;;;;;;17.43;3.43;;;;;;;-1.57;85.13;96798.53;4877316;29;20375;-87
2022/02/27 00:30:37;;;;;;;8.83;3.17;;;;;;;-1.58;85.38;96798.59;4859539;29;20273;-87
2022/02/27 00:38:00;;;;;;;9.13;3.80;;;;;;;-1.61;86.24;96796.94;4822997;29;20194;-87
2022/02/27 00:41:16;;;;;;;8.67;3.50;;;;;;;-1.62;85.58;96797.81;4790592;29;20673;-88
2022/02/27 00:44:08;;;;;;;10.73;3.20;;;;;;;-1.65;85.80;96795.38;4775749;29;20198;-86
2022/02/27 00:58:03;;;;;;;;;;;;;;;;;;;;;
2022/02/27 01:08:33;;;;;;;;;;;;;;;;;;;;;
2022/02/27 06:37:47;;;;;;;15.90;6.00;;;;;;;-2.91;95.10;96782.53;4896956;29;20235;-82
2022/02/27 06:40:13;;;;;;;11.97;6.00;;;;;;;-2.94;95.99;96785.13;4896772;29;20270;-81
2022/02/27 06:42:39;;;;;;;19.23;6.50;;;;;;;-2.99;95.93;96789.50;4896218;29;20199;-84
2022/02/27 06:45:05;;;;;;;16.47;6.23;;;;;;;-2.86;95.26;96787.47;4881267;29;20198;-83
2022/02/27 06:47:31;;;;;;;10.37;5.87;;;;;;;-2.86;95.58;96790.84;4874202;29;20670;-82
2022/02/27 06:49:57;;;;;;;18.87;6.20;;;;;;;-2.82;95.28;96789.09;4898966;29;20198;-81
2022/02/27 06:52:22;;;;;;;12.93;6.10;;;;;;;-2.77;95.61;96784.72;4876286;29;20580;-83
2022/02/27 06:54:47;;;;;;;11.80;6.43;;;;;;;-2.68;95.58;96784.50;4896072;29;20672;-82
2022/02/27 06:57:13;;;;;;;10.77;6.53;;;;;;;-2.63;95.42;96792.88;4877573;29;20188;-83
2022/02/27 06:59:38;;;;;;;12.27;6.63;;;;;;;-2.62;95.44;96796.25;4879546;29;20622;-83
2022/02/27 07:02:04;;;;;;;15.63;7.40;;;;;;;-2.63;95.52;96797.94;4876065;29;20211;-83
2022/02/27 07:04:29;;;;;;;12.37;6.23;;;;;;;-2.56;94.72;96788.47;4866869;29;20274;-79
2022/02/27 07:06:54;;;;;;;16.47;7.30;;;;;;;-2.47;94.89;96793.31;4912954;29;20199;-82
2022/02/27 07:09:23;;;;;;;13.80;6.80;;;;;;;-2.51;95.45;96790.88;4895272;29;20594;-81
2022/02/27 07:11:48;;;;;;;13.57;6.00;;;;;;;-2.42;94.86;96793.19;4894873;29;20572;-82
2022/02/27 07:14:13;;;;;;;12.87;7.07;;;;;;;-2.40;94.67;96799.06;4911235;29;20179;-81
2022/02/27 07:16:39;;;;;;;13.33;6.23;;;;;;;-2.25;94.36;96793.59;4896060;29;20214;-83
2022/02/27 07:19:04;;;;;;;11.90;7.03;;;;;;;-2.26;94.34;96801.28;4884390;29;20199;-81
2022/02/27 07:21:30;;;;;;;11.47;6.67;;;;;;;-2.23;94.08;96806.28;4862195;29;20207;-81
2022/02/27 07:23:57;;;;;;;11.40;6.70;;;;;;;-2.11;94.13;96818.69;4862422;29;20180;-81
2022/02/27 07:26:22;;;;;;;14.20;6.80;;;;;;;-2.12;94.06;96815.31;4878313;29;20187;-82
2022/02/27 07:28:47;;;;;;;13.70;6.83;;;;;;;-2.04;93.95;96815.94;4878908;29;20180;-80
2022/02/27 07:31:13;;;;;;;13.20;7.33;;;;;;;-1.96;93.28;96812.34;4878393;29;20200;-80
2022/02/27 07:33:38;;;;;;;13.03;6.80;;;;;;;-1.89;93.02;96812.16;4862164;29;20275;-80
2022/02/27 07:36:04;;;;;;;13.93;6.90;;;;;;;-1.88;93.12;96818.06;4862619;29;20306;-80
2022/02/27 07:38:29;;;;;;;13.20;6.63;;;;;;;-1.79;92.38;96822.91;4881224;29;20276;-80
2022/02/27 07:40:55;;;;;;;13.17;6.43;;;;;;;-1.76;92.21;96827.94;4880895;29;20222;-82
2022/02/27 07:43:20;;;;;;;15.73;6.67;;;;;;;-1.66;92.16;96828.53;4880327;29;20208;-79
2022/02/27 07:45:46;;;;;;;16.87;7.00;;;;;;;-1.60;92.02;96826.63;4864749;29;20220;-81
2022/02/27 07:48:13;;;;;;;16.57;7.10;;;;;;;-1.56;91.90;96820.59;4864640;29;20198;-81
2022/02/27 07:50:39;;;;;;;10.13;6.70;;;;;;;-1.45;91.69;96827.91;4880234;29;20189;-80
2022/02/27 07:53:04;;;;;;;15.90;7.50;;;;;;;-1.41;91.42;96829.50;4879387;29;20214;-81
2022/02/27 07:55:29;;;;;;;15.30;6.70;;;;;;;-1.34;90.70;96828.44;4864465;29;20284;-80
2022/02/27 07:57:54;;;;;;;13.90;7.17;;;;;;;-1.31;90.84;96830.09;4880513;29;20197;-80
2022/02/27 08:00:20;;;;;;;13.97;6.60;;;;;;;-1.25;90.34;96829.88;4879465;29;20242;-79
2022/02/27 08:02:45;;;;;;;17.63;7.17;;;;;;;-1.13;90.00;96833.81;4895609;29;20272;-82
2022/02/27 08:05:10;;;;;;;13.53;7.30;;;;;;;-1.10;89.30;96832.00;4888779;29;20204;-81
2022/02/27 08:07:36;;;;;;;14.33;7.23;;;;;;;-1.10;89.51;96837.09;4867361;29;20608;-80
2022/02/27 08:10:01;;;;;;;11.77;7.27;;;;;;;-1.05;89.19;96837.81;4865751;29;20183;-81
2022/02/27 08:12:27;;;;;;;15.87;7.83;;;;;;;-0.95;88.91;96839.19;4881879;29;20576;-80
2022/02/27 08:14:52;;;;;;;17.43;8.07;;;;;;;-0.80;88.81;96844.69;4880436;29;20208;-81
2022/02/27 08:17:18;;;;;;;12.10;6.67;;;;;;;-0.78;88.40;96850.59;4879914;29;20191;-80
2022/02/27 08:19:48;;;;;;;12.77;6.50;;;;;;;-0.67;87.89;96839.16;4865510;29;20252;-79
2022/02/27 08:22:13;;;;;;;11.00;7.27;;;;;;;-0.62;87.38;96844.13;4880206;29;20611;-83
2022/02/27 08:24:39;;;;;;;12.17;7.00;;;;;;;-0.59;87.10;96842.31;4865690;29;20285;-82
2022/02/27 08:27:04;;;;;;;14.97;7.70;;;;;;;-0.62;86.71;96842.44;4865309;29;20188;-79
2022/02/27 08:29:29;;;;;;;14.30;7.70;;;;;;;-0.59;86.66;96836.38;4880600;29;20201;-80
2022/02/27 08:31:54;;;;;;;12.80;7.10;;;;;;;-0.43;86.31;96852.03;4879745;29;20217;-82
2022/02/27 08:34:20;;;;;;;13.23;7.37;;;;;;;-0.40;85.32;96837.47;4880270;29;20231;-82
2022/02/27 08:36:45;;;;;;;14.77;7.30;;;;;;;-0.35;85.01;96833.06;4879736;29;20220;-81
2022/02/27 08:39:12;;;;;;;13.07;7.70;;;;;;;-0.26;84.90;96838.75;4882616;29;20197;-82
2022/02/27 08:41:38;;;;;;;17.17;7.23;;;;;;;-0.19;84.99;96833.34;4901011;29;20217;-80
2022/02/27 08:44:04;;;;;;;15.77;7.27;;;;;;;-0.12;83.89;96836.53;4891223;29;20192;-81
2022/02/27 08:46:29;;;;;;;15.57;7.43;;;;;;;0.01;83.93;96836.97;4903429;29;20176;-78
2022/02/27 08:48:55;;;;;;;13.93;7.20;;;;;;;0.02;83.39;96834.38;4877652;29;20611;-80
2022/02/27 08:51:20;;;;;;;15.83;6.63;;;;;;;0.15;81.98;96830.50;4879345;29;20199;-82
2022/02/27 08:53:46;;;;;;;12.57;7.10;;;;;;;0.21;82.26;96834.56;4888133;29;20198;-81
2022/02/27 08:56:11;;;;;;;10.13;6.73;;;;;;;0.32;81.40;96841.84;4885644;29;20220;-81
2022/02/27 08:58:36;;;;;;;14.40;7.73;;;;;;;0.45;80.00;96850.78;4882198;29;20247;-82
2022/02/27 09:01:02;;;;;;;11.60;7.00;;;;;;;0.56;79.70;96849.50;4880249;29;20246;-80
2022/02/27 09:03:28;;;;;;;15.90;7.90;;;;;;;0.51;79.55;96847.97;4864469;29;20206;-81
2022/02/27 09:05:53;;;;;;;12.03;7.23;;;;;;;0.64;79.43;96843.28;4864531;29;20191;-83
2022/02/27 09:08:19;;;;;;;11.17;6.73;;;;;;;0.65;79.23;96840.66;4880010;29;20199;-81
2022/02/27 09:10:45;;;;;;;13.70;7.07;;;;;;;0.76;77.62;96845.38;4880167;29;20199;-80
2022/02/27 09:13:10;;;;;;;12.10;6.83;;;;;;;0.84;77.94;96836.53;4879407;29;20278;-79
2022/02/27 09:15:36;;;;;;;14.87;6.57;;;;;;;0.83;77.89;96845.09;4879585;29;20214;-81
2022/02/27 09:18:01;;;;;;;13.47;6.57;;;;;;;0.99;77.59;96840.25;4866536;29;20187;-81
2022/02/27 09:20:27;;;;;;;11.87;6.00;;;;;;;1.02;76.53;96836.72;4897815;29;20187;-81
2022/02/27 09:22:52;;;;;;;9.40;6.23;;;;;;;1.14;75.07;96838.81;4896802;29;20213;-80
2022/02/27 09:25:17;;;;;;;13.87;6.30;;;;;;;1.35;74.18;96837.16;4897796;29;20309;-80
2022/02/27 09:27:43;;;;;;;13.63;7.27;;;;;;;1.36;74.04;96839.66;4897262;29;20199;-81
2022/02/27 09:30:09;;;;;;;10.00;6.30;;;;;;;1.43;74.30;96830.03;4897337;29;20245;-80
2022/02/27 09:32:35;;;;;;;7.73;5.73;;;;;;;1.60;72.36;96848.09;4912179;29;20206;-81
2022/02/27 09:35:01;;;;;;;8.50;5.30;;;;;;;1.72;71.23;96820.31;4897360;29;20214;-80
2022/02/27 09:37:26;;;;;;;6.70;4.90;;;;;;;1.84;70.79;96828.31;4897585;29;20198;-81
2022/02/27 09:39:53;;;;;;;9.83;5.53;;;;;;;1.86;70.10;96824.00;4898833;29;20201;-81
2022/02/27 09:42:19;;;;;;;9.53;5.67;;;;;;;2.03;69.07;96823.28;4897547;29;20298;-81
2022/02/27 09:44:44;;;;;;;6.73;4.20;;;;;;;2.09;66.89;96810.22;4897364;29;20229;-80
2022/02/27 09:47:14;;;;;;;6.93;4.53;;;;;;;2.14;66.51;96817.72;4898307;29;20209;-81
2022/02/27 09:49:45;;;;;;;7.27;4.30;;;;;;;2.12;65.53;96830.59;4913862;29;20187;-81
2022/02/27 09:52:11;;;;;;;7.20;4.27;;;;;;;2.18;64.04;96824.38;4897927;29;20203;-79
2022/02/27 09:54:37;;;;;;;6.60;4.60;;;;;;;2.15;63.90;96815.09;4897543;29;20644;-81
2022/02/27 09:57:02;;;;;;;7.47;4.40;;;;;;;2.19;64.27;96826.84;4913761;29;20187;-79
2022/02/27 09:59:28;;;;;;;5.20;4.40;;;;;;;2.37;63.81;96825.22;4897426;29;20191;-81
2022/02/27 10:02:02;;;;;;;10.67;4.40;;;;;;;2.48;64.64;96823.06;4897348;29;20244;-80
2022/02/27 10:04:35;;;;;;;5.87;4.37;;;;;;;2.45;62.36;96820.59;4897896;29;20536;-80
2022/02/27 10:07:00;;;;;;;7.70;4.40;;;;;;;2.52;61.85;96827.13;4897728;29;20272;-81
2022/02/27 10:09:26;;;;;;;7.90;4.13;;;;;;;2.61;62.18;96831.03;4898688;29;20221;-79
2022/02/27 10:11:51;;;;;;;6.90;3.87;;;;;;;2.69;62.34;96825.56;4897525;29;20238;-80
2022/02/27 10:14:27;;;;;;;7.47;4.50;;;;;;;2.73;60.19;96832.22;4898231;29;20181;-81
2022/02/27 10:17:01;;;;;;;6.77;3.90;;;;;;;2.80;59.94;96836.16;4931774;29;20208;-82
2022/02/27 10:19:27;;;;;;;6.17;3.97;;;;;;;2.89;59.63;96838.31;4914773;29;20179;-81
2022/02/27 10:21:52;;;;;;;7.77;4.27;;;;;;;2.96;59.85;96841.44;4912367;29;20226;-82
2022/02/27 10:24:18;;;;;;;7.07;4.00;;;;;;;2.98;59.23;96832.78;4899464;29;20179;-82
2022/02/27 10:26:48;;;;;;;6.87;3.97;;;;;;;2.91;59.42;96827.97;4914819;29;20655;-82
2022/02/27 10:29:17;;;;;;;6.73;4.13;;;;;;;2.89;58.58;96827.22;4899370;29;20183;-83
2022/02/27 10:31:45;;;;;;;7.20;3.87;;;;;;;2.85;58.25;96831.69;4898202;29;20210;-80
2022/02/27 10:34:27;;;;;;;5.03;4.17;;;;;;;2.70;59.20;96828.06;4897975;29;20203;-83
2022/02/27 10:37:03;;;;;;;5.87;3.97;;;;;;;2.89;57.63;96819.53;4904197;29;20226;-81
2022/02/27 10:39:43;;;;;;;6.53;3.93;;;;;;;2.91;57.95;96828.81;4921858;29;20182;-82
2022/02/27 10:42:10;;;;;;;6.10;3.20;;;;;;;2.98;55.72;96821.66;4902019;29;20203;-79
2022/02/27 10:44:35;;;;;;;5.23;2.90;;;;;;;3.12;55.53;96822.72;4887110;29;20170;-82
2022/02/27 10:47:27;;;;;;;4.53;2.97;;;;;;;3.32;54.15;96819.22;4905341;29;20182;-81
2022/02/27 10:49:55;;;;;;;5.33;2.90;;;;;;;3.34;52.29;96811.44;4890092;29;20180;-82
2022/02/27 10:52:23;;;;;;;6.90;2.80;;;;;;;3.39;52.00;96805.19;4904000;29;20302;-81
2022/02/27 10:54:50;;;;;;;4.50;3.33;;;;;;;3.40;51.70;96806.00;4901140;29;20222;-84
2022/02/27 10:57:30;;;;;;;4.93;3.47;;;;;;;3.50;52.90;96804.66;4891140;29;20195;-82
2022/02/27 10:59:56;;;;;;;5.00;2.90;;;;;;;3.55;50.77;96805.28;4886393;29;20778;-83
2022/02/27 11:02:27;;;;;;;4.70;2.70;;;;;;;3.56;51.12;96799.25;4897738;29;20213;-83
2022/02/27 11:04:56;;;;;;;4.87;3.00;;;;;;;3.43;52.16;96808.41;4898202;29;20188;-82
2022/02/27 11:07:21;;;;;;;4.77;3.17;;;;;;;3.43;51.26;96803.28;4929712;29;20184;-82
2022/02/27 11:09:47;;;;;;;4.23;2.70;;;;;;;3.54;51.08;96806.19;4930080;29;20236;-81
2022/02/27 11:12:14;;;;;;;5.67;2.60;;;;;;;3.55;51.04;96807.84;4899611;29;20211;-82
2022/02/27 11:14:39;;;;;;;4.50;3.00;;;;;;;3.63;51.65;96794.63;4888447;29;20612;-82
2022/02/27 11:17:08;;;;;;;4.07;3.47;;;;;;;3.47;50.41;96798.84;4882331;29;20180;-81
2022/02/27 11:19:39;;;;;;;3.80;3.33;;;;;;;3.64;50.86;96799.69;4876043;29;20187;-80
2022/02/27 11:22:05;;;;;;;3.90;2.77;;;;;;;3.78;51.42;96803.31;4896802;29;20249;-81
2022/02/27 11:24:33;;;;;;;5.47;3.40;;;;;;;3.81;50.70;96798.03;4902528;29;20195;-82
2022/02/27 11:26:59;;;;;;;5.93;2.90;;;;;;;3.89;51.54;96789.03;4903372;29;20172;-82
2022/02/27 11:29:24;;;;;;;5.63;3.60;;;;;;;3.85;51.91;96789.25;4917347;29;20674;-81
2022/02/27 11:31:53;;;;;;;5.17;3.43;;;;;;;4.01;52.74;96789.34;4900691;29;20210;-81
2022/02/27 11:34:24;;;;;;;7.23;3.50;;;;;;;4.00;51.06;96782.53;4890532;29;20193;-82
2022/02/27 11:36:52;;;;;;;4.60;3.30;;;;;;;3.96;48.68;96779.28;4904652;29;20213;-82
2022/02/27 11:42:04;;;;;;;4.73;3.00;;;;;;;4.16;49.10;96779.13;4884020;29;20214;-83
2022/02/27 11:44:40;;;;;;;4.93;3.00;;;;;;;4.20;49.56;96785.75;4883818;29;20187;-81
2022/02/27 11:47:11;;;;;;;5.77;2.80;;;;;;;4.27;49.16;96788.84;4869693;29;20192;-82
2022/02/27 11:49:44;;;;;;;4.23;2.77;;;;;;;4.29;48.78;96783.63;4894103;29;20203;-82
2022/02/27 11:52:14;;;;;;;6.50;3.07;;;;;;;4.35;46.74;96775.59;4900847;29;20203;-81
2022/02/27 11:54:45;;;;;;;4.00;2.53;;;;;;;4.34;45.68;96772.19;4898843;29;20215;-81
2022/02/27 11:57:16;;;;;;;3.37;2.50;;;;;;;4.43;45.67;96771.72;4900322;29;20188;-82
2022/02/27 11:59:47;;;;;;;3.77;2.60;;;;;;;4.33;45.68;96765.38;4899406;29;20648;-82
2022/02/27 12:18:49;;;;;;;4.57;2.37;;;;;;;4.51;43.86;96741.28;4741740;23;20251;-81
2022/02/27 12:21:33;;;;;;;3.57;2.20;;;;;;;4.61;44.80;96733.06;4882912;29;20199;-81
2022/02/27 12:24:09;;;;;;;4.33;2.90;;;;;;;4.51;42.69;96748.16;4863994;29;20207;-84
2022/02/27 12:26:34;;;;;;;6.27;2.53;;;;;;;4.69;44.24;96741.19;4895823;29;20188;-79
2022/02/27 12:28:59;;;;;;;3.60;2.80;;;;;;;4.87;43.17;96739.38;4896878;29;20185;-82
2022/02/27 12:31:27;;;;;;;3.17;2.30;;;;;;;4.91;42.46;96733.13;4878981;29;20194;-81
2022/02/27 12:33:54;;;;;;;3.13;2.40;;;;;;;4.92;42.72;96745.91;4864063;29;20699;-80
2022/02/27 12:36:28;;;;;;;3.20;2.77;;;;;;;4.91;43.66;96735.72;4884879;29;20233;-82
2022/02/27 12:39:01;;;;;;;5.57;2.70;;;;;;;5.04;43.71;96726.41;4864142;29;20278;-83
2022/02/27 12:41:35;;;;;;;4.57;2.80;;;;;;;4.91;43.36;96720.25;4895114;29;20665;-83
2022/02/27 12:44:03;;;;;;;3.53;2.83;;;;;;;5.01;43.98;96723.97;4884334;29;20534;-82
2022/02/27 12:46:28;;;;;;;4.50;2.83;;;;;;;4.88;43.52;96720.44;4892603;29;20187;-81
2022/02/27 12:51:41;;;;;;;3.90;2.90;;;;;;;5.04;43.11;96727.25;4888296;29;20222;-82
2022/02/27 12:54:19;;;;;;;7.47;2.60;;;;;;;4.95;43.51;96734.66;4891199;29;20191;-82
2022/02/27 12:56:54;;;;;;;3.83;2.80;;;;;;;4.82;43.93;96744.75;4882598;29;20219;-82
2022/02/27 12:59:20;;;;;;;4.10;3.10;;;;;;;4.73;43.85;96737.53;4883103;29;20232;-82
2022/02/27 13:01:53;;;;;;;4.70;2.97;;;;;;;4.69;44.14;96736.88;4880292;29;20695;-80
2022/02/27 13:04:19;;;;;;;4.83;3.33;;;;;;;4.69;44.71;96738.63;4879101;29;20189;-81
2022/02/27 13:06:44;;;;;;;3.93;3.20;;;;;;;4.59;43.94;96732.28;4879222;29;20235;-80
2022/02/27 13:09:12;;;;;;;5.77;3.33;;;;;;;4.64;44.60;96731.16;4893113;29;20634;-84
2022/02/27 13:11:48;;;;;;;4.43;3.10;;;;;;;4.67;44.14;96728.41;4897257;29;20789;-81
2022/02/27 13:14:14;;;;;;;3.17;2.60;;;;;;;4.82;43.59;96721.59;4881808;29;20218;-81
2022/02/27 13:16:40;;;;;;;4.97;2.80;;;;;;;4.71;42.62;96735.06;4894780;29;20596;-83
2022/02/27 13:19:07;;;;;;;3.50;2.87;;;;;;;4.76;43.05;96719.34;4864966;29;20188;-84
2022/02/27 13:21:33;;;;;;;5.43;3.20;;;;;;;4.86;43.32;96714.53;4879789;29;20279;-81
2022/02/27 13:24:00;;;;;;;6.67;3.50;;;;;;;4.60;44.03;96727.09;4879595;29;20184;-82
2022/02/27 13:26:30;;;;;;;3.70;3.30;;;;;;;4.67;44.45;96725.81;4878873;29;20192;-83
2022/02/27 13:28:58;;;;;;;6.10;3.10;;;;;;;4.67;43.88;96717.28;4863842;29;20197;-83
2022/02/27 14:25:56;;;;;;;3.63;2.87;;;;;;;5.05;41.16;96692.03;4916702;29;20226;-82
2022/02/27 14:28:31;;;;;;;5.27;2.80;;;;;;;4.99;40.41;96687.22;4931735;29;20262;-82
2022/02/27 14:31:11;;;;;;;3.90;2.80;;;;;;;4.92;41.06;96683.31;4902311;29;20184;-81
2022/02/27 14:33:42;;;;;;;3.70;2.73;;;;;;;4.91;40.86;96689.38;4916911;29;20218;-81
2022/02/27 14:36:13;;;;;;;5.00;2.97;;;;;;;4.89;41.02;96678.34;4933079;29;20217;-82
2022/02/27 14:38:41;;;;;;;4.97;3.20;;;;;;;5.01;41.37;96681.03;4916844;29;20269;-83
2022/02/27 14:41:09;;;;;;;4.00;2.40;;;;;;;5.02;41.13;96687.03;4916648;29;20285;-82
2022/02/27 14:43:40;;;;;;;5.80;2.80;;;;;;;4.81;41.17;96687.31;4900482;29;20206;-81
2022/02/27 14:46:05;;;;;;;5.20;2.77;;;;;;;4.77;41.55;96685.84;4916264;29;20214;-82
2022/02/27 14:48:31;;;;;;;5.30;2.60;;;;;;;4.97;42.07;96676.19;4919928;29;20194;-82
2022/02/27 14:50:56;;;;;;;5.17;3.27;;;;;;;4.92;42.11;96679.00;4935979;29;20187;-81
2022/02/27 14:53:21;;;;;;;6.77;3.30;;;;;;;4.83;42.23;96688.06;4934887;29;20230;-82
2022/02/27 14:55:47;;;;;;;3.20;2.90;;;;;;;4.60;43.53;96675.63;4920048;29;20608;-79
2022/02/27 14:58:12;;;;;;;4.77;3.23;;;;;;;4.80;43.03;96680.50;4911741;29;20196;-79
2022/02/27 15:00:37;;;;;;;4.07;2.77;;;;;;;4.62;43.39;96678.94;4901445;29;20682;-80
2022/02/27 15:03:02;;;;;;;5.60;3.13;;;;;;;4.57;44.48;96685.25;4915088;29;20218;-84
2022/02/27 15:05:28;;;;;;;5.83;2.87;;;;;;;4.63;44.09;96675.47;4919572;29;20186;-81
2022/02/27 15:07:53;;;;;;;6.37;2.90;;;;;;;4.55;43.71;96681.00;4935568;29;20182;-82
2022/02/27 15:10:21;;;;;;;3.90;3.03;;;;;;;4.49;44.34;96691.63;4906479;29;20187;-81
2022/02/27 15:12:46;;;;;;;3.63;2.50;;;;;;;4.73;44.16;96680.94;4885050;29;20230;-82
2022/02/27 15:15:11;;;;;;;4.07;2.90;;;;;;;4.71;44.71;96681.00;4901039;29;20203;-82
2022/02/27 15:17:37;;;;;;;4.63;2.90;;;;;;;4.62;44.18;96681.53;4900772;29;20175;-82
2022/02/27 15:20:03;;;;;;;3.50;2.80;;;;;;;4.73;44.44;96676.59;4903695;29;20193;-81
2022/02/27 15:22:29;;;;;;;4.23;3.00;;;;;;;4.62;44.92;96678.13;4901284;29;20217;-82
2022/02/27 15:24:55;;;;;;;6.17;3.10;;;;;;;4.68;44.31;96675.19;4916757;29;20203;-81
2022/02/27 15:27:20;;;;;;;6.17;2.80;;;;;;;4.53;44.28;96687.16;4899696;29;20180;-82
2022/02/27 15:29:46;;;;;;;4.33;2.77;;;;;;;4.60;43.97;96675.63;4899986;29;20211;-81
2022/02/27 15:32:11;;;;;;;3.33;2.50;;;;;;;4.68;43.94;96670.91;4901594;29;20209;-82
2022/02/27 15:34:37;;;;;;;3.50;2.70;;;;;;;4.58;43.82;96676.59;4930563;29;20218;-81
2022/02/27 15:37:02;;;;;;;4.53;2.93;;;;;;;4.64;44.09;96664.25;4916962;29;20206;-81
2022/02/27 15:39:28;;;;;;;5.93;2.80;;;;;;;4.45;43.80;96669.56;4919957;29;20248;-81
2022/02/27 15:41:53;;;;;;;6.13;2.90;;;;;;;4.39;44.39;96672.47;4918847;29;20206;-82
2022/02/27 15:44:18;;;;;;;4.70;2.77;;;;;;;4.20;44.54;96676.94;4908155;29;20595;-81
2022/02/27 15:46:43;;;;;;;4.30;2.70;;;;;;;4.32;44.64;96665.97;4885313;29;20192;-81
2022/02/27 15:49:10;;;;;;;3.10;2.43;;;;;;;4.21;45.69;96674.28;4885107;29;20339;-82
2022/02/27 15:51:38;;;;;;;3.20;2.70;;;;;;;4.26;44.58;96672.31;4916768;29;20198;-81
2022/02/27 15:54:03;;;;;;;3.03;2.53;;;;;;;4.15;43.97;96671.19;4919614;29;20210;-82
2022/02/27 15:56:34;;;;;;;4.97;2.80;;;;;;;4.09;44.96;96669.78;4935347;29;20271;-82
2022/02/27 15:59:04;;;;;;;4.80;2.60;;;;;;;4.08;45.05;96668.13;4919198;29;20669;-82
2022/02/27 16:01:30;;;;;;;3.13;2.23;;;;;;;4.01;44.17;96663.38;4903237;29;20191;-81
2022/02/27 16:03:55;;;;;;;7.70;4.60;;;;;;;3.98;45.37;96667.78;4919656;29;20183;-81
2022/02/27 16:06:23;;;;;;;4.47;2.70;;;;;;;3.97;45.23;96658.38;4919351;29;20205;-82
2022/02/27 16:08:48;;;;;;;3.63;2.20;;;;;;;3.91;44.70;96658.72;4918731;29;20226;-81
2022/02/27 16:11:13;;;;;;;4.80;2.87;;;;;;;3.82;44.36;96659.22;4918634;29;20598;-83
2022/02/27 16:13:39;;;;;;;7.47;3.10;;;;;;;3.75;45.08;96657.84;4918999;29;20347;-81
2022/02/27 16:16:05;;;;;;;7.80;3.13;;;;;;;3.67;45.30;96668.53;4934970;29;20207;-82
2022/02/27 16:18:31;;;;;;;3.40;2.50;;;;;;;3.76;45.51;96666.41;4920415;29;20270;-81
2022/02/27 16:20:57;;;;;;;4.80;3.20;;;;;;;3.46;46.25;96669.63;4919410;29;20285;-82
2022/02/27 16:23:22;;;;;;;5.00;2.63;;;;;;;3.53;46.74;96665.81;4918450;29;20281;-82
2022/02/27 16:25:48;;;;;;;4.33;2.83;;;;;;;3.38;46.61;96671.72;4919313;29;20638;-81
2022/02/27 16:28:14;;;;;;;4.20;2.77;;;;;;;3.34;46.67;96673.59;4919113;29;20238;-82
2022/02/27 16:30:39;;;;;;;4.27;2.83;;;;;;;3.45;46.93;96680.81;4918770;29;20249;-83
2022/02/27 16:33:04;;;;;;;3.83;3.30;;;;;;;3.35;47.89;96667.56;4939659;29;20289;-79
2022/02/27 16:35:29;;;;;;;3.90;2.40;;;;;;;3.27;47.89;96671.41;4922405;29;20316;-81
2022/02/27 16:37:55;;;;;;;5.43;2.70;;;;;;;3.25;48.15;96670.66;4925682;29;20586;-83
2022/02/27 16:40:20;;;;;;;4.30;2.53;;;;;;;3.16;48.31;96681.38;4925233;29;20186;-83
2022/02/27 16:42:46;;;;;;;4.97;2.30;;;;;;;3.15;48.87;96672.03;4921763;29;20648;-81
2022/02/27 16:45:14;;;;;;;3.97;2.63;;;;;;;3.00;48.82;96674.41;4912484;29;20186;-81
2022/02/27 16:47:39;;;;;;;5.23;2.87;;;;;;;2.87;49.61;96673.38;4910552;29;20187;-83
2022/02/27 16:50:05;;;;;;;4.00;2.73;;;;;;;2.80;50.19;96674.56;4891795;29;20282;-81
2022/02/27 16:52:31;;;;;;;3.50;2.90;;;;;;;2.71;50.40;96678.38;4923304;29;20228;-80
2022/02/27 16:54:56;;;;;;;4.90;2.70;;;;;;;2.60;50.45;96678.06;4931903;29;20186;-80
2022/02/27 16:57:21;;;;;;;3.37;2.60;;;;;;;2.57;50.60;96674.81;4909874;29;20214;-80
2022/02/27 16:59:47;;;;;;;5.53;2.80;;;;;;;2.58;49.95;96676.47;4896316;29;20183;-81
2022/02/27 17:02:13;;;;;;;3.67;2.30;;;;;;;2.54;50.75;96691.97;4919086;29;20227;-81
2022/02/27 17:04:39;;;;;;;3.37;2.30;;;;;;;2.42;51.05;96687.44;4917271;29;20262;-80
2022/02/27 17:07:04;;;;;;;3.40;2.37;;;;;;;2.32;51.48;96688.75;4922726;29;20187;-81
2022/02/27 17:09:30;;;;;;;4.67;2.70;;;;;;;2.23;51.87;96694.31;4906870;29;20278;-81
2022/02/27 17:11:55;;;;;;;4.03;2.70;;;;;;;2.13;51.98;96699.00;4885750;29;20214;-79
2022/02/27 17:14:20;;;;;;;4.53;2.90;;;;;;;2.04;52.91;96694.28;4903518;29;20213;-80
2022/02/27 17:16:46;;;;;;;3.70;2.43;;;;;;;2.01;52.58;96699.53;4889241;29;20222;-79
2022/02/27 17:19:11;;;;;;;5.00;3.13;;;;;;;1.97;52.56;96703.13;4905176;29;20605;-81
2022/02/27 17:21:36;;;;;;;4.57;3.17;;;;;;;1.92;52.96;96705.88;4905280;29;20667;-81
2022/02/27 17:24:02;;;;;;;3.73;2.70;;;;;;;1.86;53.47;96711.28;4890673;29;20315;-81
2022/02/27 17:26:29;;;;;;;4.27;3.53;;;;;;;1.74;53.80;96716.09;4909256;29;20200;-80
2022/02/27 17:28:55;;;;;;;6.43;2.50;;;;;;;1.75;54.34;96707.50;4899551;29;20204;-82
2022/02/27 17:31:20;;;;;;;4.93;3.07;;;;;;;1.75;54.13;96713.47;4903039;29;20179;-78
2022/02/27 17:33:45;;;;;;;6.30;3.57;;;;;;;1.94;53.89;96716.06;4916951;29;20646;-81
2022/02/27 17:36:11;;;;;;;11.27;6.37;;;;;;;1.86;54.17;96720.72;4915184;29;20203;-79
2022/02/27 17:38:36;;;;;;;5.33;3.80;;;;;;;1.59;55.07;96720.13;4898465;29;20175;-80
2022/02/27 17:41:01;;;;;;;4.60;3.47;;;;;;;1.62;54.85;96722.56;4898616;29;21051;-79
2022/02/27 17:43:27;;;;;;;5.53;3.40;;;;;;;1.51;55.39;96724.75;4898272;29;20709;-79
2022/02/27 17:45:52;;;;;;;6.87;4.00;;;;;;;1.47;55.27;96733.44;4881866;29;20644;-79
2022/02/27 17:48:17;;;;;;;4.07;3.37;;;;;;;1.42;55.90;96737.03;4899922;29;20651;-78
2022/02/27 17:50:43;;;;;;;6.57;3.40;;;;;;;1.35;56.10;96735.63;4898183;29;20195;-78
2022/02/27 17:53:09;;;;;;;5.40;3.00;;;;;;;1.30;56.67;96737.53;4898210;29;20206;-78
2022/02/27 17:55:35;;;;;;;4.47;3.50;;;;;;;1.29;56.85;96740.97;4915172;29;20210;-78
2022/02/27 17:58:01;;;;;;;4.50;3.67;;;;;;;1.28;56.50;96738.50;4914978;29;20221;-79
2022/02/27 18:00:28;;;;;;;4.63;3.60;;;;;;;1.27;56.62;96742.78;4917811;29;20224;-79
2022/02/27 18:02:53;;;;;;;4.60;3.30;;;;;;;1.18;57.09;96727.78;4918289;29;20198;-78
2022/02/27 18:05:19;;;;;;;7.37;4.20;;;;;;;1.20;56.75;96731.13;4917485;29;20926;-80
2022/02/27 18:07:46;;;;;;;7.07;4.00;;;;;;;1.16;57.21;96736.44;4915705;29;20226;-80
2022/02/27 18:10:12;;;;;;;5.50;3.87;;;;;;;1.11;57.76;96734.88;4901572;29;20563;-79
2022/02/27 18:12:38;;;;;;;8.13;4.07;;;;;;;1.08;57.72;96736.75;4917440;29;20285;-79
2022/02/27 18:15:14;;;;;;;4.40;3.83;;;;;;;0.95;58.10;96750.88;4917007;29;20201;-79
2022/02/27 18:17:39;;;;;;;6.07;3.57;;;;;;;0.95;58.21;96751.72;4933421;29;20194;-81
2022/02/27 18:20:05;;;;;;;6.37;3.90;;;;;;;0.99;57.71;96758.41;4918763;29;20190;-79
2022/02/27 18:22:31;;;;;;;16.30;8.20;;;;;;;1.02;57.77;96762.53;4915490;29;20687;-80
2022/02/27 18:24:56;;;;;;;12.53;5.73;;;;;;;0.94;57.88;96762.00;4916410;29;20273;-77
2022/02/27 18:27:22;;;;;;;6.60;3.97;;;;;;;0.95;58.28;96759.38;4917029;29;20206;-80
2022/02/27 18:29:47;;;;;;;5.93;4.53;;;;;;;0.98;58.06;96755.91;4916689;29;20194;-78
2022/02/27 18:32:13;;;;;;;7.00;4.70;;;;;;;0.91;58.92;96767.25;4915695;29;20589;-79
2022/02/27 18:34:38;;;;;;;8.17;3.80;;;;;;;0.95;58.55;96763.66;4918232;29;20184;-79
2022/02/27 18:37:03;;;;;;;7.30;4.30;;;;;;;0.85;59.13;96765.75;4903394;29;20802;-79
2022/02/27 18:39:29;;;;;;;6.60;4.13;;;;;;;0.73;59.67;96769.63;4898243;29;20206;-79
2022/02/27 18:41:54;;;;;;;5.60;4.60;;;;;;;0.64;59.40;96772.53;4897513;29;20206;-78
2022/02/27 18:44:19;;;;;;;7.20;4.50;;;;;;;0.60;59.82;96772.69;4900061;29;20268;-78
2022/02/27 18:46:45;;;;;;;7.80;4.63;;;;;;;0.59;59.95;96773.56;4921510;29;20205;-78
2022/02/27 18:49:10;;;;;;;10.03;5.23;;;;;;;0.50;60.26;96773.03;4921747;29;20229;-79
2022/02/27 18:51:35;;;;;;;8.33;5.10;;;;;;;0.52;60.62;96785.75;4954986;29;20181;-78
2022/02/27 18:54:03;;;;;;;8.37;4.77;;;;;;;0.45;60.11;96777.50;4954729;29;20197;-78
2022/02/27 18:56:32;;;;;;;7.37;4.57;;;;;;;0.51;59.47;96776.41;4954957;29;20195;-79
2022/02/27 18:58:57;;;;;;;8.00;4.90;;;;;;;0.57;59.69;96778.75;4953167;29;20178;-77
2022/02/27 19:01:22;;;;;;;6.90;4.93;;;;;;;0.49;60.10;96783.31;4937203;29;20199;-80
2022/02/27 19:03:48;;;;;;;7.70;4.63;;;;;;;0.50;60.16;96780.69;4936329;29;20189;-80
2022/02/27 19:06:13;;;;;;;6.17;4.80;;;;;;;0.46;59.65;96783.44;4923504;29;20592;-79
2022/02/27 19:08:39;;;;;;;6.10;5.07;;;;;;;0.37;60.18;96782.03;4898832;29;20185;-79
2022/02/27 19:11:04;;;;;;;8.80;5.50;;;;;;;0.33;60.63;96783.03;4899446;29;20188;-79
2022/02/27 19:13:29;;;;;;;6.93;5.33;;;;;;;0.38;60.26;96790.53;4919198;29;20231;-80